Turnhout, Belgium
Current Conditions -  °F | °C
As of 9:25 PM on Wednesday 26 Nov 2014 (Local Time) from EHGR Reporting Station
Haze Haze  
Wind Chill:   Ceiling: 800
Heat Index:   Visibility: 2mi
Dew Point:   Wind: 8mph
Humidity: 100%   Direction: 130°SE
Pressure: 29.85"   Gusts: NA
Location:  51.32°N, 4.94°E
Report Text: EHGR 262025Z AUTO 13007KT 3300 BR FEW003 OVC008 06/06 Q1011 REDZ YLO
Loading
Personal Weather Stations






























Interactive Weather Map New forecast layout! Learn more

10-Day Weather Forecast

Advertisements
Track Severe Weather on mobile